Time;durP1;ratioP1;P1;durP2;ratioP2;P2;SDS_P1;SDS_P2;PMS_P1;PMS_P2;Temp;Humidity;BMP_temperature;BMP_pressure;BME280_temperature;BME280_humidity;BME280_pressure;Samples;Min_cycle;Max_cycle;Signal;HPM_P1;HPM_P2
2022/09/30 00:00:11;;;;;;;3.30;2.60;;;7.70;99.90;;;;;;5065521;23;20711;-67
2022/09/30 00:02:13;;;;;;;3.37;2.30;;;7.60;99.90;;;;;;5066084;23;20220;-68
2022/09/30 00:04:17;;;;;;;7.77;4.03;;;7.60;99.90;;;;;;5066172;23;20420;-68
2022/09/30 00:06:19;;;;;;;4.53;3.23;;;7.70;99.90;;;;;;5040299;23;20517;-68
2022/09/30 00:08:20;;;;;;;5.17;2.80;;;7.70;99.90;;;;;;5066039;23;20163;-68
2022/09/30 00:10:20;;;;;;;4.87;3.33;;;7.70;99.90;;;;;;5065366;23;20397;-68
2022/09/30 00:12:21;;;;;;;3.73;2.40;;;7.80;99.90;;;;;;5066172;23;20217;-68
2022/09/30 00:14:22;;;;;;;4.17;2.97;;;7.80;99.90;;;;;;5066226;23;20163;-68
2022/09/30 00:16:25;;;;;;;4.77;3.33;;;7.80;99.90;;;;;;5066255;23;20167;-68
2022/09/30 00:18:29;;;;;;;5.87;3.37;;;7.90;99.90;;;;;;5066118;23;20185;-68
2022/09/30 00:20:30;;;;;;;3.93;2.97;;;7.80;99.90;;;;;;5065053;23;20390;-68
2022/09/30 00:22:30;;;;;;;4.77;3.40;;;7.90;99.90;;;;;;5040083;23;20269;-68
2022/09/30 00:24:31;;;;;;;7.13;3.33;;;7.90;99.90;;;;;;5065969;23;20273;-68
2022/09/30 00:26:33;;;;;;;4.87;3.20;;;7.90;99.90;;;;;;5066010;23;20682;-67
2022/09/30 00:28:34;;;;;;;4.47;3.60;;;8.00;99.90;;;;;;5040106;23;20494;-68
2022/09/30 00:30:34;;;;;;;6.37;3.27;;;7.90;99.90;;;;;;5065109;23;20606;-68
2022/09/30 00:32:35;;;;;;;5.30;3.57;;;7.90;99.90;;;;;;5066152;23;20269;-68
2022/09/30 00:34:36;;;;;;;3.33;2.77;;;7.90;99.90;;;;;;5040372;23;20169;-68
2022/09/30 00:36:46;;;;;;;5.20;3.30;;;7.90;99.90;;;;;;5065603;23;20251;-68
2022/09/30 00:38:47;;;;;;;3.57;2.80;;;8.00;99.90;;;;;;5066090;23;20550;-68
2022/09/30 00:40:48;;;;;;;3.80;2.73;;;8.00;99.90;;;;;;5065304;23;20212;-68
2022/09/30 00:42:48;;;;;;;5.47;3.30;;;8.00;99.90;;;;;;5065715;23;20192;-68
2022/09/30 00:45:04;;;;;;;6.20;3.90;;;8.00;99.90;;;;;;5065777;23;20162;-68
2022/09/30 00:47:28;;;;;;;6.37;3.67;;;8.00;99.90;;;;;;5066059;23;20172;-68
2022/09/30 00:49:28;;;;;;;10.07;3.93;;;8.00;99.90;;;;;;5066315;23;20164;-68
2022/09/30 00:51:33;;;;;;;8.53;5.03;;;8.00;99.90;;;;;;5065187;23;20389;-68
2022/09/30 00:53:56;;;;;;;7.03;4.30;;;8.00;99.90;;;;;;5066298;23;20181;-68
2022/09/30 00:56:08;;;;;;;10.47;5.60;;;8.00;99.90;;;;;;5066123;23;20161;-68
2022/09/30 00:58:13;;;;;;;7.43;5.07;;;8.00;99.90;;;;;;5066666;23;20166;-68
2022/09/30 01:00:14;;;;;;;7.93;4.60;;;8.00;99.90;;;;;;5067042;23;20570;-68
2022/09/30 01:02:15;;;;;;;12.33;5.37;;;8.00;99.90;;;;;;5067722;23;20268;-68
2022/09/30 01:04:20;;;;;;;10.93;6.03;;;8.10;99.90;;;;;;5068371;23;20237;-67
2022/09/30 01:06:23;;;;;;;12.70;6.47;;;8.10;99.90;;;;;;5067643;23;20165;-67
2022/09/30 01:08:25;;;;;;;12.17;5.90;;;8.10;99.90;;;;;;5067459;23;20230;-68
2022/09/30 01:10:25;;;;;;;8.67;4.73;;;8.00;99.90;;;;;;5066854;23;20183;-68
2022/09/30 01:12:26;;;;;;;9.10;4.83;;;8.10;99.90;;;;;;5067423;23;20255;-68
2022/09/30 01:14:27;;;;;;;8.87;4.93;;;8.00;99.90;;;;;;5067822;23;20162;-68
2022/09/30 01:16:36;;;;;;;8.23;4.70;;;8.00;99.90;;;;;;5041898;23;20167;-68
2022/09/30 01:19:15;;;;;;;9.17;5.07;;;8.00;99.90;;;;;;5067417;23;20498;-67
2022/09/30 01:21:53;;;;;;;12.63;6.00;;;8.10;99.90;;;;;;5066673;23;20389;-68
2022/09/30 01:24:10;;;;;;;18.30;9.20;;;8.00;99.90;;;;;;5067202;23;20191;-68
2022/09/30 01:26:32;;;;;;;11.47;6.43;;;8.00;99.90;;;;;;5067518;23;20840;-68
2022/09/30 01:29:03;;;;;;;12.87;6.50;;;7.90;99.90;;;;;;5067372;23;20187;-68
2022/09/30 01:31:30;;;;;;;11.70;6.00;;;7.80;99.90;;;;;;5066678;23;20380;-68
2022/09/30 01:33:33;;;;;;;13.60;6.63;;;8.00;99.90;;;;;;5067017;23;20908;-68
2022/09/30 01:36:09;;;;;;;15.07;6.77;;;7.90;99.90;;;;;;5067453;23;20393;-68
2022/09/30 01:38:42;;;;;;;17.07;7.23;;;7.90;99.90;;;;;;5061471;23;20405;-68
2022/09/30 01:41:15;;;;;;;12.77;6.83;;;8.10;99.90;;;;;;4969039;23;20251;-67
2022/09/30 01:43:31;;;;;;;17.23;8.47;;;8.10;99.90;;;;;;5067805;23;20434;-68
2022/09/30 01:45:58;;;;;;;19.07;9.30;;;7.90;99.90;;;;;;5067633;23;20506;-67
2022/09/30 01:48:09;;;;;;;12.40;6.73;;;7.80;99.90;;;;;;5067683;23;20179;-68
2022/09/30 01:50:17;;;;;;;17.97;8.67;;;7.80;99.90;;;;;;5041351;23;20411;-67
2022/09/30 01:52:22;;;;;;;13.07;7.23;;;7.80;99.90;;;;;;5067567;23;20759;-67
2022/09/30 01:54:35;;;;;;;24.20;11.07;;;7.80;99.90;;;;;;5067736;23;20457;-67
2022/09/30 01:56:52;;;;;;;40.93;9.10;;;7.80;99.90;;;;;;5067607;23;20399;-67
2022/09/30 01:59:00;;;;;;;66.27;13.17;;;7.60;99.90;;;;;;5067685;23;20387;-68
2022/09/30 02:01:07;;;;;;;28.50;10.10;;;7.60;99.90;;;;;;5066860;23;20484;-67
2022/09/30 02:03:15;;;;;;;17.90;9.50;;;7.60;99.90;;;;;;5041606;23;20482;-67
2022/09/30 02:05:41;;;;;;;64.33;16.43;;;7.50;99.90;;;;;;5067517;23;20386;-67
2022/09/30 02:07:48;;;;;;;44.13;12.17;;;7.50;99.90;;;;;;5067491;23;20926;-68
2022/09/30 02:10:00;;;;;;;153.97;19.97;;;7.60;99.90;;;;;;5067156;23;20386;-67
2022/09/30 02:12:04;;;;;;;138.83;14.77;;;7.50;99.90;;;;;;5066704;23;20388;-68
2022/09/30 02:14:18;;;;;;;113.93;19.73;;;7.50;99.90;;;;;;5067684;23;20444;-67
2022/09/30 02:16:24;;;;;;;133.53;18.97;;;7.40;99.90;;;;;;5067396;23;20396;-68
2022/09/30 02:18:46;;;;;;;61.93;10.63;;;7.50;99.90;;;;;;5067299;23;20403;-68
2022/09/30 02:20:54;;;;;;;93.30;14.63;;;7.40;99.90;;;;;;5065472;23;20413;-67
2022/09/30 02:23:08;;;;;;;120.87;16.90;;;7.50;99.90;;;;;;5067279;23;20457;-67
2022/09/30 02:25:19;;;;;;;129.80;13.77;;;7.50;99.90;;;;;;5067180;23;20436;-68
2022/09/30 02:27:27;;;;;;;153.87;22.67;;;7.40;99.90;;;;;;5041110;23;20541;-67
2022/09/30 02:29:39;;;;;;;208.97;16.80;;;7.30;99.90;;;;;;5065067;23;20386;-68
2022/09/30 02:31:42;;;;;;;237.23;25.03;;;7.50;99.90;;;;;;5066293;23;20825;-68
2022/09/30 02:34:05;;;;;;;160.47;14.73;;;7.50;99.90;;;;;;5066723;23;20827;-67
2022/09/30 02:36:30;;;;;;;193.33;18.10;;;7.40;99.90;;;;;;5066422;23;20396;-68
2022/09/30 02:38:38;;;;;;;209.13;18.13;;;7.50;99.90;;;;;;5067096;23;20398;-68
2022/09/30 02:41:05;;;;;;;292.67;24.50;;;7.40;99.90;;;;;;5066589;23;20509;-68
2022/09/30 02:43:07;;;;;;;278.83;21.90;;;7.30;99.90;;;;;;5066882;23;20438;-68
2022/09/30 02:45:11;;;;;;;292.50;27.17;;;7.20;99.90;;;;;;5067271;23;20444;-68
2022/09/30 02:47:30;;;;;;;277.10;22.67;;;7.10;99.90;;;;;;5067368;23;20387;-68
2022/09/30 02:49:41;;;;;;;561.50;31.90;;;7.30;99.90;;;;;;5067118;23;20398;-67
2022/09/30 02:52:28;;;;;;;412.30;29.97;;;7.30;99.90;;;;;;5066254;23;20383;-66
2022/09/30 02:54:40;;;;;;;146.77;14.10;;;7.20;99.90;;;;;;5059822;23;20410;-67
2022/09/30 02:56:41;;;;;;;272.43;18.60;;;7.20;99.90;;;;;;5041216;23;20433;-67
2022/09/30 02:58:44;;;;;;;337.03;22.33;;;7.20;99.90;;;;;;5066870;23;20382;-67
2022/09/30 03:00:44;;;;;;;239.60;16.67;;;7.10;99.90;;;;;;5065912;23;20165;-66
2022/09/30 03:02:45;;;;;;;230.83;21.23;;;7.10;99.90;;;;;;5066627;23;20533;-68
2022/09/30 03:04:48;;;;;;;250.73;21.20;;;7.10;99.90;;;;;;5040568;23;20246;-68
2022/09/30 03:06:49;;;;;;;274.50;25.20;;;7.00;99.90;;;;;;5067015;23;20167;-67
2022/09/30 03:08:51;;;;;;;249.47;24.20;;;7.00;99.90;;;;;;5066907;23;20387;-67
2022/09/30 03:10:52;;;;;;;163.43;20.17;;;6.90;99.90;;;;;;5066108;23;20166;-67
2022/09/30 03:13:10;;;;;;;101.80;10.00;;;6.90;99.90;;;;;;5040787;23;20461;-67
2022/09/30 03:15:26;;;;;;;288.53;22.43;;;7.00;99.90;;;;;;5066606;23;20159;-67
2022/09/30 03:17:55;;;;;;;38.93;6.87;;;7.00;99.90;;;;;;5066650;23;20393;-68
2022/09/30 03:20:02;;;;;;;99.97;11.53;;;7.00;99.90;;;;;;5066412;23;20397;-67
2022/09/30 03:22:33;;;;;;;264.10;20.10;;;7.10;99.90;;;;;;5065449;23;20536;-67
2022/09/30 03:24:52;;;;;;;131.50;13.60;;;6.90;99.90;;;;;;5066665;23;20390;-67
2022/09/30 03:27:11;;;;;;;200.50;20.10;;;6.90;99.90;;;;;;5066721;23;20463;-67
2022/09/30 03:29:20;;;;;;;122.60;11.13;;;7.00;99.90;;;;;;5066549;23;20383;-67
2022/09/30 03:31:44;;;;;;;74.60;9.73;;;7.10;99.90;;;;;;5065920;23;20425;-67
2022/09/30 03:34:03;;;;;;;113.67;14.43;;;7.10;99.90;;;;;;5001204;23;20439;-68
2022/09/30 03:36:23;;;;;;;207.30;16.33;;;7.20;99.90;;;;;;5042076;23;21026;-67
2022/09/30 03:38:23;;;;;;;207.70;21.50;;;7.20;99.90;;;;;;5042280;23;20395;-68
2022/09/30 03:40:29;;;;;;;99.53;10.00;;;7.10;99.90;;;;;;5041501;23;20398;-67
2022/09/30 03:42:37;;;;;;;96.80;11.60;;;7.10;99.90;;;;;;5042097;23;20271;-67
2022/09/30 03:44:56;;;;;;;46.63;9.93;;;7.10;99.90;;;;;;5042344;23;20393;-67
2022/09/30 03:47:01;;;;;;;143.50;15.90;;;7.10;99.90;;;;;;5042114;23;20463;-68
2022/09/30 03:49:07;;;;;;;98.47;12.27;;;7.10;99.90;;;;;;5042015;23;20419;-67
2022/09/30 03:51:08;;;;;;;46.87;9.13;;;7.00;99.90;;;;;;5041445;23;20398;-68
2022/09/30 03:53:11;;;;;;;100.33;13.77;;;7.00;99.90;;;;;;5041008;23;20445;-67
2022/09/30 03:55:12;;;;;;;41.47;8.33;;;7.00;99.90;;;;;;5042061;23;20392;-67
2022/09/30 03:57:13;;;;;;;52.37;10.67;;;7.00;99.90;;;;;;5042124;23;20402;-68
2022/09/30 03:59:34;;;;;;;41.23;9.03;;;7.10;99.90;;;;;;5042132;23;20159;-67
2022/09/30 04:01:35;;;;;;;106.97;13.87;;;7.10;99.90;;;;;;5041038;23;20481;-68
2022/09/30 04:03:35;;;;;;;44.10;9.70;;;7.00;99.90;;;;;;5041850;23;20415;-68
2022/09/30 04:05:36;;;;;;;18.43;5.73;;;7.00;99.90;;;;;;5040454;23;20246;-68
2022/09/30 04:07:37;;;;;;;31.67;7.77;;;6.90;99.90;;;;;;5042032;23;20166;-68
2022/09/30 04:09:37;;;;;;;9.70;4.83;;;7.00;99.90;;;;;;5042293;23;20155;-68
2022/09/30 04:11:38;;;;;;;11.47;5.60;;;7.10;99.90;;;;;;5041527;23;20995;-68
2022/09/30 04:13:39;;;;;;;7.00;4.30;;;6.90;99.90;;;;;;5040656;23;20183;-68
2022/09/30 04:15:40;;;;;;;10.10;4.50;;;7.00;99.90;;;;;;5042274;23;20242;-67
2022/09/30 04:17:41;;;;;;;5.90;3.53;;;7.00;99.90;;;;;;5042073;23;20167;-68
2022/09/30 04:19:41;;;;;;;10.87;4.87;;;7.00;99.90;;;;;;5041929;23;20483;-67
2022/09/30 04:21:42;;;;;;;8.00;4.63;;;7.10;99.90;;;;;;5041217;23;20165;-68
2022/09/30 04:23:42;;;;;;;5.67;3.70;;;7.10;99.90;;;;;;5042459;23;20637;-67
2022/09/30 04:25:50;;;;;;;6.27;3.40;;;7.10;99.90;;;;;;5042185;23;20183;-66
2022/09/30 04:27:50;;;;;;;5.70;3.03;;;7.20;99.90;;;;;;5041958;23;20237;-68
2022/09/30 04:29:51;;;;;;;7.60;3.90;;;7.20;99.90;;;;;;5042113;23;20402;-68
2022/09/30 04:31:52;;;;;;;5.03;2.80;;;7.20;99.90;;;;;;5041384;23;20163;-68
2022/09/30 04:33:52;;;;;;;5.30;3.00;;;7.30;99.90;;;;;;5061703;23;20240;-68
2022/09/30 04:35:57;;;;;;;4.20;2.97;;;7.40;99.90;;;;;;5067463;23;20158;-67
2022/09/30 04:37:58;;;;;;;7.13;3.70;;;7.30;99.90;;;;;;5042145;23;20163;-68
2022/09/30 04:39:59;;;;;;;5.97;3.40;;;7.20;99.90;;;;;;5067999;23;20168;-69
2022/09/30 04:41:59;;;;;;;8.60;4.80;;;7.20;99.90;;;;;;5067146;23;20528;-68
2022/09/30 04:44:04;;;;;;;44.50;7.53;;;7.10;99.90;;;;;;5067816;23;20186;-67
2022/09/30 04:46:05;;;;;;;25.73;7.00;;;7.00;99.90;;;;;;5067901;23;20578;-68
2022/09/30 04:48:06;;;;;;;50.10;7.37;;;7.00;99.90;;;;;;5067997;23;20193;-68
2022/09/30 04:50:06;;;;;;;31.47;7.93;;;7.00;99.90;;;;;;5072331;23;20159;-68
2022/09/30 04:52:07;;;;;;;60.43;8.57;;;7.10;99.90;;;;;;5070875;23;20635;-68
2022/09/30 04:54:07;;;;;;;47.40;9.23;;;7.00;99.90;;;;;;5071623;23;20238;-68
2022/09/30 04:56:09;;;;;;;44.60;6.57;;;7.00;99.90;;;;;;5071571;23;20164;-67
2022/09/30 04:58:10;;;;;;;62.43;9.47;;;6.80;99.90;;;;;;5069842;23;20203;-66
2022/09/30 05:00:11;;;;;;;42.40;8.27;;;6.70;99.90;;;;;;5067335;23;20177;-65
2022/09/30 05:02:12;;;;;;;134.13;15.47;;;6.70;99.90;;;;;;5066982;23;21060;-66
2022/09/30 05:04:15;;;;;;;121.77;12.97;;;6.80;99.90;;;;;;5067337;23;20161;-66
2022/09/30 05:06:15;;;;;;;94.13;12.53;;;7.00;99.90;;;;;;5067604;23;20426;-66
2022/09/30 05:08:16;;;;;;;180.70;18.20;;;6.90;99.90;;;;;;5067474;23;20229;-67
2022/09/30 05:10:17;;;;;;;139.63;13.03;;;7.00;99.90;;;;;;5066700;23;20482;-66
2022/09/30 05:12:17;;;;;;;123.83;12.17;;;7.10;99.90;;;;;;5067244;23;20169;-66
2022/09/30 05:14:18;;;;;;;77.37;9.57;;;7.00;99.90;;;;;;5067619;23;20167;-66
2022/09/30 05:16:19;;;;;;;67.43;8.80;;;7.10;99.90;;;;;;5067378;23;20234;-66
2022/09/30 05:18:20;;;;;;;140.57;12.90;;;7.00;99.90;;;;;;5067290;23;20164;-66
2022/09/30 05:20:20;;;;;;;73.77;8.63;;;7.10;99.90;;;;;;5066283;23;20169;-66
2022/09/30 05:22:23;;;;;;;99.27;10.40;;;7.20;99.90;;;;;;5067265;23;20434;-66
2022/09/30 05:24:24;;;;;;;78.60;9.10;;;7.20;99.90;;;;;;5067792;23;20187;-67
2022/09/30 05:26:24;;;;;;;206.63;17.93;;;7.30;99.90;;;;;;5067330;23;20391;-66
2022/09/30 05:28:25;;;;;;;173.47;17.53;;;7.30;99.90;;;;;;5067291;23;20162;-67
2022/09/30 05:30:26;;;;;;;127.47;14.30;;;7.10;99.90;;;;;;5066977;23;20164;-66
2022/09/30 05:32:27;;;;;;;84.50;11.60;;;6.90;99.90;;;;;;5041223;23;20648;-66
2022/09/30 05:34:27;;;;;;;111.40;17.97;;;7.00;99.90;;;;;;5043170;23;20171;-66
2022/09/30 05:36:28;;;;;;;118.00;14.13;;;6.90;99.90;;;;;;5043093;23;20181;-66
2022/09/30 05:38:28;;;;;;;110.90;10.90;;;7.10;99.90;;;;;;5043187;23;20625;-66
2022/09/30 05:40:30;;;;;;;161.30;13.37;;;7.40;99.90;;;;;;5042578;23;20177;-66
2022/09/30 05:42:32;;;;;;;76.00;11.17;;;7.60;99.90;;;;;;5042782;23;20199;-67
2022/09/30 05:44:33;;;;;;;141.00;19.90;;;7.50;99.90;;;;;;5040962;23;20817;-69
2022/09/30 05:46:34;;;;;;;37.53;9.07;;;7.40;99.90;;;;;;5043001;23;20212;-66
2022/09/30 05:48:35;;;;;;;38.23;8.00;;;7.30;99.90;;;;;;5043153;23;20171;-65
2022/09/30 05:50:35;;;;;;;77.93;10.37;;;7.30;99.90;;;;;;5042221;23;20414;-68
2022/09/30 05:52:36;;;;;;;43.43;9.77;;;7.20;99.90;;;;;;5042901;23;20298;-68
2022/09/30 05:54:36;;;;;;;28.80;7.70;;;7.10;99.90;;;;;;5041441;23;20202;-68
2022/09/30 05:56:37;;;;;;;32.53;8.63;;;7.30;99.90;;;;;;5042876;23;20498;-68
2022/09/30 05:58:39;;;;;;;48.50;7.97;;;7.20;99.90;;;;;;5042789;23;20173;-68
2022/09/30 06:00:45;;;;;;;36.63;8.27;;;7.20;99.90;;;;;;5042391;23;20191;-68
2022/09/30 06:02:50;;;;;;;37.40;8.80;;;7.20;99.90;;;;;;5042814;23;20466;-68
2022/09/30 06:04:50;;;;;;;28.13;7.23;;;7.30;99.90;;;;;;5042887;23;20738;-67
2022/09/30 06:06:51;;;;;;;28.23;7.87;;;7.30;99.90;;;;;;5042803;23;20391;-67
2022/09/30 06:08:51;;;;;;;25.37;7.10;;;7.30;99.90;;;;;;5041283;23;20167;-68
2022/09/30 06:10:52;;;;;;;17.40;5.77;;;7.20;99.90;;;;;;5042165;23;20565;-67
2022/09/30 06:12:52;;;;;;;21.97;7.63;;;7.30;99.90;;;;;;5042889;23;20190;-68
2022/09/30 06:14:54;;;;;;;19.07;7.03;;;7.10;99.90;;;;;;5042939;23;20159;-68
2022/09/30 06:16:54;;;;;;;36.23;10.27;;;7.10;99.90;;;;;;5042849;23;20636;-68
2022/09/30 06:18:55;;;;;;;14.40;6.87;;;7.30;99.90;;;;;;5042778;23;20250;-68
2022/09/30 06:20:57;;;;;;;30.83;8.00;;;7.20;99.90;;;;;;5041914;23;20169;-68
2022/09/30 06:22:59;;;;;;;23.40;8.20;;;7.20;99.90;;;;;;5042718;23;20201;-68
2022/09/30 06:24:59;;;;;;;65.77;13.23;;;7.20;99.90;;;;;;5043016;23;20862;-68
2022/09/30 06:27:00;;;;;;;58.00;13.10;;;7.10;99.90;;;;;;5041206;23;20405;-68
2022/09/30 06:29:00;;;;;;;43.20;10.23;;;7.10;99.90;;;;;;5042608;23;20159;-67
2022/09/30 06:31:02;;;;;;;42.83;8.43;;;7.10;99.90;;;;;;5042014;23;20192;-67
2022/09/30 06:33:03;;;;;;;37.30;9.93;;;7.20;99.90;;;;;;5050865;23;20231;-68
2022/09/30 06:35:03;;;;;;;53.17;9.87;;;7.20;99.90;;;;;;5066881;23;20395;-68
2022/09/30 06:37:04;;;;;;;29.17;8.77;;;7.30;99.90;;;;;;5066988;23;20170;-67
2022/09/30 06:39:05;;;;;;;48.83;9.10;;;7.30;99.90;;;;;;5067123;23;20168;-67
2022/09/30 06:41:06;;;;;;;16.03;6.10;;;7.30;99.90;;;;;;5066228;23;20162;-67
2022/09/30 06:43:07;;;;;;;29.83;8.23;;;7.30;99.90;;;;;;5066620;23;20280;-67
2022/09/30 06:45:10;;;;;;;41.27;8.63;;;7.40;99.90;;;;;;5066963;23;20187;-68
2022/09/30 06:47:12;;;;;;;59.37;12.97;;;7.60;99.90;;;;;;5066863;23;20159;-67
2022/09/30 06:49:13;;;;;;;24.20;7.07;;;7.70;99.90;;;;;;5066762;23;20391;-67
2022/09/30 06:51:13;;;;;;;35.67;8.77;;;7.70;99.90;;;;;;5066190;23;20424;-65
2022/09/30 06:53:14;;;;;;;28.23;10.03;;;7.80;99.90;;;;;;5067069;23;20185;-66
2022/09/30 06:55:15;;;;;;;29.33;7.57;;;7.70;99.90;;;;;;5066853;23;20163;-67
2022/09/30 06:57:16;;;;;;;26.60;6.70;;;7.70;99.90;;;;;;5066514;23;20169;-67
2022/09/30 06:59:17;;;;;;;60.57;12.37;;;7.70;99.90;;;;;;5066755;23;20968;-66
2022/09/30 07:01:19;;;;;;;35.17;8.53;;;7.70;99.90;;;;;;5065419;23;20198;-66
2022/09/30 07:03:27;;;;;;;19.87;7.50;;;7.60;99.90;;;;;;5040873;23;20219;-67
2022/09/30 07:05:27;;;;;;;47.53;8.80;;;7.80;99.90;;;;;;5066512;23;20166;-66
2022/09/30 07:07:28;;;;;;;55.50;8.17;;;7.80;99.90;;;;;;5066827;23;20501;-66
2022/09/30 07:09:29;;;;;;;14.50;6.20;;;7.70;99.90;;;;;;5066749;23;20162;-69
2022/09/30 07:11:30;;;;;;;76.90;11.87;;;7.80;99.90;;;;;;5065669;23;20158;-66
2022/09/30 07:13:32;;;;;;;56.90;8.00;;;7.60;99.90;;;;;;5066521;23;20641;-66
2022/09/30 07:15:32;;;;;;;46.77;10.40;;;7.40;99.90;;;;;;5066608;23;20171;-66
2022/09/30 07:17:33;;;;;;;25.07;6.73;;;7.50;99.90;;;;;;5066583;23;20254;-66
2022/09/30 07:19:34;;;;;;;29.67;8.77;;;7.70;99.90;;;;;;5066407;23;20165;-67
2022/09/30 07:21:34;;;;;;;21.10;8.13;;;7.80;99.90;;;;;;5039786;23;20232;-66
2022/09/30 07:23:35;;;;;;;15.20;8.03;;;7.90;99.90;;;;;;5066423;23;20177;-67
2022/09/30 07:25:36;;;;;;;13.80;8.20;;;7.90;99.90;;;;;;5066542;23;20210;-66
2022/09/30 07:27:36;;;;;;;69.77;9.43;;;7.90;99.90;;;;;;5040502;23;20162;-67
2022/09/30 07:29:37;;;;;;;57.60;12.03;;;8.00;99.90;;;;;;5066407;23;20191;-67
2022/09/30 07:31:38;;;;;;;55.50;9.67;;;7.60;99.90;;;;;;5065669;23;20161;-66
2022/09/30 07:33:39;;;;;;;32.50;7.87;;;7.70;99.90;;;;;;5066224;23;20547;-66
2022/09/30 07:35:42;;;;;;;47.20;7.80;;;7.90;99.90;;;;;;5066501;23;20166;-66
2022/09/30 07:37:43;;;;;;;26.33;7.53;;;8.10;99.90;;;;;;5040548;23;20249;-67
2022/09/30 07:39:46;;;;;;;12.27;6.47;;;8.10;99.90;;;;;;5066364;23;20556;-67
2022/09/30 07:41:47;;;;;;;17.33;6.60;;;8.40;99.90;;;;;;5065621;23;20615;-67
2022/09/30 07:43:47;;;;;;;16.37;5.93;;;8.70;99.90;;;;;;5066228;23;20182;-68
2022/09/30 07:45:49;;;;;;;33.70;6.77;;;8.90;99.90;;;;;;5065758;23;20158;-68
2022/09/30 07:47:51;;;;;;;31.00;6.20;;;8.90;99.90;;;;;;5066316;23;20174;-68
2022/09/30 07:49:51;;;;;;;21.47;9.30;;;8.80;99.90;;;;;;5066342;23;20155;-67
2022/09/30 07:51:55;;;;;;;23.53;6.77;;;8.90;99.90;;;;;;5039762;23;20170;-67
2022/09/30 07:54:01;;;;;;;21.03;8.40;;;9.00;99.90;;;;;;5065958;23;20188;-68
2022/09/30 07:56:06;;;;;;;11.37;5.57;;;9.10;99.90;;;;;;5066300;23;20504;-67
2022/09/30 07:58:09;;;;;;;9.50;5.63;;;9.20;99.90;;;;;;5066455;23;20165;-67
2022/09/30 08:00:11;;;;;;;18.50;5.83;;;9.20;99.90;;;;;;5065870;23;20201;-67
2022/09/30 08:02:16;;;;;;;22.80;9.77;;;9.10;99.90;;;;;;5066183;23;20197;-67
2022/09/30 08:04:19;;;;;;;10.80;6.07;;;9.00;99.90;;;;;;5066198;23;20155;-67
2022/09/30 08:06:20;;;;;;;12.13;6.70;;;9.00;99.90;;;;;;5066125;23;20169;-67
2022/09/30 08:08:21;;;;;;;11.40;6.93;;;9.10;99.90;;;;;;5065983;23;20158;-68
2022/09/30 08:10:22;;;;;;;9.10;5.63;;;9.30;99.90;;;;;;5065266;23;20502;-68
2022/09/30 08:12:22;;;;;;;8.97;6.13;;;9.50;99.90;;;;;;5066054;23;20158;-68
2022/09/30 08:14:26;;;;;;;9.50;5.83;;;9.50;99.90;;;;;;5065756;23;20162;-68
2022/09/30 08:16:26;;;;;;;8.63;5.43;;;9.70;99.90;;;;;;5066105;23;20253;-68
2022/09/30 08:18:27;;;;;;;9.70;5.73;;;9.70;99.90;;;;;;5048576;23;20989;-64
2022/09/30 08:20:28;;;;;;;9.27;6.37;;;9.60;99.90;;;;;;5046894;23;21087;-66
2022/09/30 08:22:28;;;;;;;8.80;5.97;;;9.50;99.90;;;;;;5048312;23;20186;-67
2022/09/30 08:24:29;;;;;;;14.03;8.83;;;9.50;99.90;;;;;;5046803;23;20165;-67
2022/09/30 08:26:29;;;;;;;14.07;8.63;;;9.60;99.90;;;;;;5049065;23;20683;-67
2022/09/30 08:28:30;;;;;;;9.57;6.67;;;10.00;99.90;;;;;;5048734;23;20171;-67
2022/09/30 08:30:34;;;;;;;8.27;5.23;;;10.10;99.90;;;;;;5047809;23;20165;-66
2022/09/30 08:32:35;;;;;;;5.73;4.17;;;10.40;99.90;;;;;;5046873;23;20185;-67
2022/09/30 08:34:35;;;;;;;8.30;6.07;;;10.50;99.90;;;;;;5054811;23;20174;-67
2022/09/30 08:36:36;;;;;;;6.10;4.60;;;10.50;99.90;;;;;;5064957;23;20162;-65
2022/09/30 08:38:36;;;;;;;6.27;4.40;;;10.90;99.70;;;;;;5065125;23;20166;-66
2022/09/30 08:40:53;;;;;;;5.57;4.40;;;10.80;98.30;;;;;;5064376;23;20166;-67
2022/09/30 08:43:00;;;;;;;4.53;3.00;;;10.60;99.30;;;;;;5065176;23;20713;-68
2022/09/30 08:45:25;;;;;;;4.83;3.47;;;11.00;98.80;;;;;;5065058;23;20186;-68
2022/09/30 08:48:07;;;;;;;5.47;3.77;;;11.20;98.50;;;;;;5065553;23;20238;-67
2022/09/30 08:50:13;;;;;;;9.43;4.67;;;11.20;98.00;;;;;;5007977;23;20170;-68
2022/09/30 08:52:19;;;;;;;8.53;5.63;;;11.30;97.50;;;;;;5065458;23;20166;-67
2022/09/30 08:54:24;;;;;;;8.60;6.37;;;11.10;98.10;;;;;;5065388;23;20616;-68
2022/09/30 08:56:30;;;;;;;7.50;5.00;;;10.90;99.00;;;;;;5065281;23;20170;-67
2022/09/30 08:58:35;;;;;;;6.80;5.27;;;11.30;97.50;;;;;;5065240;23;20163;-67
2022/09/30 09:00:38;;;;;;;7.87;5.30;;;11.60;97.00;;;;;;5064631;23;20683;-68
2022/09/30 09:02:42;;;;;;;5.60;4.07;;;11.80;96.00;;;;;;5065216;23;20269;-67
2022/09/30 09:04:43;;;;;;;7.20;4.70;;;12.00;95.70;;;;;;5039791;23;20195;-66
2022/09/30 09:07:02;;;;;;;9.70;5.80;;;12.20;95.20;;;;;;5065544;23;20162;-65
2022/09/30 09:09:13;;;;;;;9.23;5.70;;;12.00;95.00;;;;;;5065803;23;20225;-66
2022/09/30 09:11:32;;;;;;;6.27;3.90;;;11.50;97.30;;;;;;5064774;23;20253;-64
2022/09/30 09:13:46;;;;;;;5.00;3.87;;;11.70;97.50;;;;;;5065262;23;20201;-64
2022/09/30 09:16:12;;;;;;;7.07;4.30;;;11.90;96.00;;;;;;5065402;23;20158;-64
2022/09/30 09:18:27;;;;;;;10.50;6.53;;;11.60;97.70;;;;;;5065033;23;20163;-64
2022/09/30 09:20:34;;;;;;;5.83;4.37;;;11.50;98.80;;;;;;5066012;23;20166;-65
2022/09/30 09:22:36;;;;;;;8.93;5.47;;;11.70;99.00;;;;;;5066395;23;20234;-66
2022/09/30 09:24:44;;;;;;;4.63;3.53;;;12.10;99.50;;;;;;5066726;23;20163;-67
2022/09/30 09:26:46;;;;;;;4.83;3.43;;;12.10;96.00;;;;;;5066592;23;20213;-67
2022/09/30 09:29:10;;;;;;;5.20;3.73;;;12.80;94.10;;;;;;5066198;23;20158;-66
2022/09/30 09:31:15;;;;;;;4.97;3.63;;;13.40;91.10;;;;;;5065901;23;20250;-67
2022/09/30 09:33:21;;;;;;;4.57;3.20;;;12.70;90.90;;;;;;5066126;23;20253;-66
2022/09/30 09:35:42;;;;;;;4.40;3.63;;;13.20;91.00;;;;;;5066391;23;20182;-67
2022/09/30 09:38:24;;;;;;;3.40;3.10;;;13.30;95.40;;;;;;5066493;23;20166;-67
2022/09/30 09:40:57;;;;;;;4.33;3.00;;;12.60;92.60;;;;;;5023849;23;20170;-67
2022/09/30 09:43:22;;;;;;;4.47;3.00;;;12.10;94.00;;;;;;5066224;23;20656;-67
2022/09/30 09:45:47;;;;;;;4.13;3.50;;;12.30;93.40;;;;;;5066577;23;20716;-66
2022/09/30 09:47:56;;;;;;;5.33;3.27;;;12.80;91.00;;;;;;5066319;23;20158;-66
2022/09/30 09:50:03;;;;;;;5.83;3.63;;;12.80;90.00;;;;;;5066543;23;20197;-69
2022/09/30 09:52:11;;;;;;;5.40;3.40;;;12.60;90.60;;;;;;5065886;23;20213;-68
2022/09/30 09:54:14;;;;;;;5.30;3.40;;;12.70;89.40;;;;;;5064580;23;20563;-68
2022/09/30 09:56:20;;;;;;;4.63;3.67;;;12.70;90.40;;;;;;5065872;23;20597;-68
2022/09/30 09:58:21;;;;;;;4.37;3.50;;;12.90;90.00;;;;;;5066074;23;20166;-69
2022/09/30 10:02:43;;;;;;;4.63;3.20;;;12.60;91.20;;;;;;5065998;23;20696;-69
2022/09/30 10:04:49;;;;;;;5.23;3.57;;;13.10;88.40;;;;;;5066235;23;20158;-69
2022/09/30 10:06:55;;;;;;;4.00;3.60;;;13.00;90.70;;;;;;5066115;23;20162;-69
2022/09/30 10:08:55;;;;;;;4.97;3.40;;;13.20;90.40;;;;;;5066069;23;20205;-71
2022/09/30 10:11:19;;;;;;;4.27;3.10;;;13.50;87.50;;;;;;5065431;23;20533;-68
2022/09/30 10:13:23;;;;;;;4.33;3.70;;;14.30;80.80;;;;;;5016312;23;20688;-68
2022/09/30 10:15:25;;;;;;;5.13;3.90;;;14.60;76.50;;;;;;5066196;23;20190;-68
2022/09/30 10:17:32;;;;;;;4.73;3.60;;;14.70;77.00;;;;;;5065755;23;20213;-69
2022/09/30 10:19:33;;;;;;;5.43;3.77;;;15.00;73.80;;;;;;5040267;23;20211;-69
2022/09/30 10:21:34;;;;;;;4.80;3.97;;;15.10;72.00;;;;;;5064959;23;20166;-69
2022/09/30 10:23:38;;;;;;;3.57;3.07;;;14.90;74.50;;;;;;5066011;23;20225;-69
2022/09/30 10:25:54;;;;;;;3.50;3.20;;;15.00;71.20;;;;;;5066030;23;20686;-68
2022/09/30 10:28:00;;;;;;;4.63;3.30;;;15.10;69.50;;;;;;5065995;23;20161;-67
2022/09/30 10:30:02;;;;;;;4.63;3.63;;;15.60;73.10;;;;;;5040171;23;20248;-68
2022/09/30 10:32:08;;;;;;;4.67;3.47;;;16.30;73.10;;;;;;5065290;23;20671;-68
2022/09/30 10:34:24;;;;;;;3.57;3.17;;;16.50;70.60;;;;;;5039901;23;20205;-67
2022/09/30 10:36:34;;;;;;;3.30;3.00;;;15.50;69.70;;;;;;5041802;23;20171;-68
2022/09/30 10:38:37;;;;;;;3.13;2.83;;;15.30;70.40;;;;;;5041546;23;20163;-69
2022/09/30 10:40:37;;;;;;;3.30;3.00;;;16.00;70.80;;;;;;5039256;23;20644;-69
2022/09/30 10:42:40;;;;;;;3.87;2.90;;;15.00;76.60;;;;;;5041135;23;20194;-68
2022/09/30 10:44:48;;;;;;;4.37;2.83;;;15.60;79.00;;;;;;5041599;23;20190;-70
2022/09/30 10:46:54;;;;;;;3.30;2.87;;;16.20;66.30;;;;;;5041537;23;20163;-70
2022/09/30 10:48:57;;;;;;;3.67;3.00;;;16.70;66.80;;;;;;5041413;23;20598;-69
2022/09/30 10:50:59;;;;;;;3.90;3.50;;;17.70;65.90;;;;;;5040872;23;20168;-70
2022/09/30 10:53:10;;;;;;;3.30;3.00;;;17.60;63.00;;;;;;5039826;23;20219;-69
2022/09/30 10:55:41;;;;;;;2.50;2.30;;;19.00;59.00;;;;;;5041631;23;20717;-72